Immagine casuale
Testata Regione Lazio ARSIAL SIARL

Ultima Misura Rilevata

Temperatura, Umidità, Pioggia, Pressione Radiazione Solare, Venti, Evapotraspirazione, ecc.
Temperature diurne e notturne Direzione vento Legenda
Prov Stazione Data TMin TMed TMax UMed Pioggia PMed
FR ALATRI Basciano 12/11/2019 8,4 11,4 14,3 87 48,6 990
FR ALVITO Az. Ist. S. Benedetto 12/11/2019 8,6 11 13,9 91 39,6 995
FR ANAGNI La Gloria 12/11/2019 9,1 10,8 15,1 98 38,8 996
FR ARPINO Vigne Piane 12/11/2019 8,1 11,3 14,1 88 35,8 994
FR BOVILLE ERNICA Sasso 12/11/2019 10 12 14,7 92 39,6 996
FR CECCANO C.da Passo del Cardinale 12/11/2019 10 11,5 15 98 41,6 ----
FR ESPERIA Modale 12/11/2019 9,7 12,2 15,3 96 62,4 991
FR PASTENA Acero 12/11/2019 9,4 11,5 14,8 95 56,8 993
FR PIGLIO Civitella 12/11/2019 8,8 10,8 15,6 96 36,4 993
FR PONTECORVO Melfi di Sotto 12/11/2019 10 12,3 15,2 95 42,2 ----
FR S. ELIA FIUMERAPIDO Portella 12/11/2019 9,8 13,8 17,6 86 34,4 995
FR S. GIORGIO A LIRI Porto 12/11/2019 9,5 12,5 16,2 95 73 990
FR SGURGOLA Campo Lungo 12/11/2019 9,6 11,5 14,4 97 57,2 ----
FR VALLECORSA Serbatoio comunale 12/11/2019 8,2 11,4 14,1 86 70,4 994
LT APRILIA Le Ferriere 12/11/2019 11,1 13,4 16,8 89 5,4 993
LT CISTERNA B.go Carso 12/11/2019 10,4 12,6 16,3 91 10,6 ----
LT CISTERNA Doganella di Ninfa 12/11/2019 11,4 13,5 17,1 88 17,8 995
LT CORI Portone 12/11/2019 10,7 14 18 81 17 993
LT FONDI Capratica 12/11/2019 11,2 14,8 17,4 88 48 995
LT FORMIA Loc. Gianola 12/11/2019 10,6 15,2 19,5 79 76,8 ----
LT ITRI Valle Quercia 12/11/2019 9,4 13,6 17,6 79 60,6 993
LT MAENZA Casacotta 12/11/2019 10,7 13,7 17,6 83 33 987
LT MINTURNO Pulcherini 12/11/2019 9,4 13,8 17,1 92 69 995
LT PONTINIA Cotarda 12/11/2019 11,5 15 17,8 80 39 994
LT SABAUDIA Acquaviva 12/11/2019 11,1 13,7 16 90 30,6 993
LT SONNINO Frasso 12/11/2019 11,1 14,5 17,7 84 56,6 994
RI ACCUMOLI Terracino 12/11/2019 5,1 7 9 96 7,8 998
RI BORGOVELINO Ponte Basso 12/11/2019 7,4 11,2 15,8 91 6 994
RI CANTALUPO S. Francesco 12/11/2019 5,9 7,9 11 100 5,4 ----
RI CASTEL DI TORA Monte di Tora 12/11/2019 8,6 11,4 15,5 82 5,4 992
RI CASTELNUOVO FARFA C. Spadone 12/11/2019 10,4 12,6 15,8 88 3,6 ----
RI CONFIGNI Portella 12/11/2019 8,5 10,5 13,3 88 4,2 994
RI FARA SABINA Canneto 12/11/2019 10,4 13,2 15,7 77 2,2 994
RI FARA SABINA Sant'Andrea 12/11/2019 10 12,1 14,9 90 4,8 ----
RI MONTELEONE S. Prato Camino 12/11/2019 8,3 11,2 15,9 90 2,2 994
RI MONTOPOLI IN SABINA Colle Arcone 12/11/2019 8,9 11 13,8 98 5,8 ----
RI MONTOPOLI IN SABINA Villa Caprola 12/11/2019 9,5 11,3 14,9 100 7,6 ----
RI POGGIO CATINO Pastine 12/11/2019 8,9 11,2 13,6 93 4 ----
RI POGGIO NATIVO Casali 12/11/2019 8,9 12,2 15,3 86 2,8 ----
RI RIETI Piana di Rieti 12/11/2019 8,1 9,8 13,5 96 4,8 998
RI SCANDRIGLIA Ponticelli 12/11/2019 9,5 12,7 16,4 87 4,5 ----
RM AGOSTA La Cisterna 12/11/2019 8 9,6 14,6 99 17,4 993
RM BRACCIANO Prato Pianciano 12/11/2019 10,1 12,6 16 93 9,4 991
RM CANALE MONTERANO Monte Virginio 12/11/2019 7,8 10,6 15,8 94 9,4 992
RM CERVETERI Campo di Mare 12/11/2019 12,1 14,2 16,8 74 9,7 ----
RM CIVITELLA S.PAOLO Le Cese 12/11/2019 8,4 10,7 13,8 96 6 994
RM FIUMICINO Maccarese 12/11/2019 11,3 12,8 15,2 92 11,9 994
RM FIUMICINO Testa di Lepre 12/11/2019 10,6 12,5 15,3 89 7 ----
RM FORMELLO Perazzeta 12/11/2019 10,9 12,7 15,9 85 6,3 ----
RM FRASCATI Prata Porci 12/11/2019 10,1 12,1 16,1 96 8,8 994
RM GENAZZANO Coop. La Sonnina 12/11/2019 9 11,1 14,5 93 23,8 995
RM GROTTAFERRATA Valle Marciana 12/11/2019 10,2 12,3 15,5 86 5,4 994
RM LADISPOLI Palo Laziale 12/11/2019 11,3 13,7 16,6 85 12,2 995
RM LICENZA Colle Franco 12/11/2019 8 11,1 15,2 85 9,6 991
RM MARCELLINA V. Campetella 12/11/2019 10,4 11,8 14,2 96 6,8 ----
RM MARINO Gotto d'Oro 12/11/2019 10,4 12,3 15,7 N.D. 3,8 996
RM MONTECOMPATRI Colle Mattia 12/11/2019 9,4 11,7 15,9 93 11,6 996
RM MONTECOMPATRI Pantano Borghese 12/11/2019 10 11,9 16,1 95 8 990
RM MONTELIBRETTI Bruciati 12/11/2019 10,1 12,3 14,9 89 3,4 ----
RM MONTEPORZIO Camaldoli 12/11/2019 7,5 10,3 14,8 90 10,6 995
RM MONTEROTONDO Grotta Marozza 12/11/2019 10,2 11,8 14,7 93 7,2 994
RM PALOMBARA Fonte Grande 12/11/2019 9,4 11,2 14,2 94 5,6 ----
RM ROMA Capocotta 12/11/2019 N.D. N.D. N.D. N.D. N.D. ----
RM ROMA Ponte di Nona 12/11/2019 N.D. N.D. N.D. N.D. N.D. N.D.
RM ROMA Via Lanciani 38 12/11/2019 11,5 13 15 89 0,6 993
RM S. GREGORIO C. Faustiniano 12/11/2019 9,4 11,8 16,2 91 11,2 989
RM VELLETRI Cantina Sperimentale 12/11/2019 9,5 12,5 16,3 82 10 989
RM VELLETRI Prato Lungo 12/11/2019 10,5 13,1 16,1 79 9,6 ----
RM ZAGAROLO Santa Apollara 12/11/2019 9,9 11,6 15 94 14,4 ----
VT ACQUAPENDENTE Falconiera 12/11/2019 7,6 9,7 13,5 95 11,4 995
VT BAGNOREGIO Castell Cellesi 12/11/2019 8,4 10,4 13,1 90 8 ----
VT BASSANO R. Piano Mola 12/11/2019 8,1 10,5 14,6 93 6,2 991
VT BLERA Puntoni 12/11/2019 8,3 11,1 14,9 94 8,3 995
VT BOLSENA Capone 12/11/2019 8,8 11,2 13,8 87 7,6 995
VT BOLSENA Rentica 12/11/2019 9,1 11,4 13,9 88 6,9 ----
VT CANINO Diga Timone 12/11/2019 9,8 12,5 16,1 88 12 994
VT CANINO Pianacce 12/11/2019 9,8 12,8 16,3 85 10,2 995
VT CANINO San Valeriano 12/11/2019 9,6 12,3 15,2 87 9,1 ----
VT CELLENO Acquaforte 12/11/2019 8,3 11 14,2 96 7,1 ----
VT CORCHIANO Pantalone 12/11/2019 8,5 11 15,3 95 3,4 995
VT FARNESE Gressa 12/11/2019 8,4 11 14,1 88 9,9 ----
VT FARNESE Pian di Sala 12/11/2019 7 10,2 13,5 93 12,9 ----
VT GROTTE DI CASTRO Borghetto 12/11/2019 9,1 11,4 14,7 89 9,8 996
VT GROTTE DI CASTRO Purgatorio 12/11/2019 7,8 9,9 13,7 96 10,8 995
VT LATERA Centro Florovivaistico 12/11/2019 8,8 11,1 14,6 86 12,4 995
VT MONTALTO Le Murelle 12/11/2019 10,6 13,2 16,9 90 16,2 996
VT MONTALTO Pescia Romana 12/11/2019 11 13,4 16,9 89 20,2 994
VT MONTEFIASCONE Commenda 12/11/2019 9,2 11,8 15,4 92 6,6 ----
VT RONCIGLIONE Ponterotto 12/11/2019 8,8 11,6 15,4 87 4,2 ----
VT SORIANO CIMINO Pantane 12/11/2019 7,5 10,4 14,8 98 4,6 994
VT SORIANO CIMINO Poggio di Chia 12/11/2019 7,3 10,4 14,9 98 5,6 ----
VT TARQUINIA Portaccia 12/11/2019 11,5 13,6 16,9 87 11,3 ----
VT TUSCANIA Montebello 12/11/2019 9,5 12,2 15,8 93 12,6 ----
VT VETRALLA Marchionato 12/11/2019 8,3 11,5 14,7 98 7,2 ----
VT VITERBO Pisello 12/11/2019 9 11,6 14,7 92 5,4 ----
N.D. = Dati Non Disponibili
---- = Sensore non presente

Le misure esposte sono grezze, ovvero non sono state validate.